| time (UTC) | temp F | wind direction | speed MPH | gust MPH | rain 1hr in | rain 24hr in | rain mn in | humidity % | barometer mb |
| 20260902124510 | 63 | 132 | 0.0 | 1.0 | 0.00 | 0.00 | 0.00 | 1 | 1004.9 |
| 20260902123006 | 63 | 7 | 0.0 | 0.0 | 0.00 | 0.00 | 0.00 | 1 | 1005.5 |
| 20260902121507 | 63 | 7 | 0.0 | 3.0 | 0.00 | 0.00 | 0.00 | 1 | 1005.4 |
| 20260902120005 | 63 | 24 | 0.0 | 2.0 | 0.00 | 0.00 | 0.00 | 1 | 1005.0 |
| 20260902114504 | 63 | 35 | 1.0 | 4.0 | 0.00 | 0.00 | 0.00 | 1 | 1005.3 |
| 20260902113010 | 63 | 67 | 0.0 | 1.0 | 0.00 | 0.00 | 0.00 | 1 | 1005.6 |
| 20260902111504 | 63 | 38 | 0.0 | 1.0 | 0.00 | 0.00 | 0.00 | 1 | 1005.7 |
| 20260902110005 | 63 | 38 | 0.0 | 1.0 | 0.00 | 0.00 | 0.00 | 1 | 1005.4 |
| 20260902104700 | 63 | 38 | 0.0 | 1.0 | 0.00 | 0.00 | 0.00 | 1 | 1005.1 |
| 20260902103056 | 63 | 37 | 0.0 | 2.0 | 0.00 | 0.00 | 0.00 | 1 | 1005.1 |
| 20260902101551 | 63 | 38 | 0.0 | 1.0 | 0.00 | 0.00 | 0.00 | 1 | 1005.1 |
| 20260902100046 | 63 | 38 | 0.0 | 0.0 | 0.00 | 0.00 | 0.00 | 1 | 1005.0 |
| 20260902094545 | 63 | 38 | 0.0 | 3.0 | 0.00 | 0.00 | 0.00 | 1 | 1004.8 |
| 20260902093040 | 63 | 29 | 0.0 | 3.0 | 0.00 | 0.00 | 0.00 | 4 | 1004.8 |
| 20260902091534 | 63 | 3 | 1.0 | 2.0 | 0.00 | 0.00 | 0.00 | 8 | 1004.8 |
| 20260902090029 | 64 | 64 | 0.0 | 3.0 | 0.00 | 0.00 | 0.00 | 31 | 1004.9 |
| 20260902084530 | 64 | 74 | 0.0 | 2.0 | 0.00 | 0.00 | 0.00 | 27 | 1004.9 |
| 20260902083020 | 63 | 80 | 0.0 | 2.0 | 0.00 | 0.00 | 0.00 | 9 | 1004.9 |
| 20260902081517 | 64 | 82 | 0.0 | 2.0 | 0.00 | 0.00 | 0.00 | 15 | 1004.8 |
| 20260902080012 | 64 | 85 | 0.0 | 2.0 | 0.00 | 0.00 | 0.00 | 12 | 1004.8 |
| 20260902074507 | 64 | 100 | 1.0 | 4.0 | 0.00 | 0.00 | 0.00 | 2 | 1004.9 |
| 20260902073003 | 64 | 14 | 0.0 | 3.0 | 0.00 | 0.00 | 0.00 | 9 | 1004.9 |
| 20260902071559 | 64 | 24 | 2.0 | 4.0 | 0.00 | 0.00 | 0.00 | 1 | 1005.1 |
| 20260902070055 | 64 | 355 | 2.0 | 4.0 | 0.00 | 0.00 | 0.00 | 1 | 1005.4 |
| 20260902064550 | 65 | 8 | 2.0 | 4.0 | 0.00 | 0.00 | 0.00 | 1 | 1005.7 |
| 20260902063106 | 65 | 330 | 1.0 | 4.0 | 0.00 | 0.00 | 0.00 | 1 | 1005.9 |
| 20260902061541 | 65 | 29 | 0.0 | 1.0 | 0.00 | 0.00 | 0.00 | 13 | 1005.6 |
| 20260902060053 | 65 | 31 | 0.0 | 3.0 | 0.00 | 0.00 | 0.00 | 22 | 1005.2 |
| 20260902054539 | 66 | 20 | 1.0 | 3.0 | 0.00 | 0.00 | 0.00 | 36 | 1005.2 |
| 20260902053038 | 65 | 109 | 1.0 | 2.0 | 0.00 | 0.00 | 0.00 | 25 | 1005.3 |
| 20260902051545 | 66 | 111 | 1.0 | 2.0 | 0.00 | 0.00 | 0.00 | 30 | 1005.2 |
| 20260902050032 | 66 | 68 | 1.0 | 3.0 | 0.00 | 0.00 | 0.00 | 27 | 1005.4 |
| 20260902044530 | 66 | 45 | 0.0 | 2.0 | 0.00 | 0.00 | 0.00 | 21 | 1005.6 |
| 20260902043129 | 67 | 336 | 0.0 | 0.0 | 0.00 | 0.00 | 0.00 | 13 | 1005.8 |
| 20260902041541 | 67 | 334 | 0.0 | 3.0 | 0.00 | 0.00 | 0.00 | 13 | 1005.6 |
| 20260902040028 | 67 | 40 | 0.0 | 2.0 | 0.00 | 0.00 | 0.00 | 7 | 1005.2 |
| 20260902034528 | 66 | 51 | 0.0 | 2.0 | 0.00 | 0.00 | 0.00 | 1 | 1005.4 |
| 20260902033027 | 67 | 49 | 0.0 | 1.0 | 0.00 | 0.00 | 0.00 | 5 | 1005.8 |
| 20260902031526 | 67 | 49 | 0.0 | 2.0 | 0.00 | 0.00 | 0.00 | 15 | 1005.6 |
| 20260902030025 | 67 | 45 | 1.0 | 3.0 | 0.00 | 0.00 | 0.00 | 20 | 1005.4 |
| 20260902024525 | 68 | 45 | 0.0 | 3.0 | 0.00 | 0.00 | 0.00 | 18 | 1005.4 |
| 20260902023024 | 68 | 8 | 1.0 | 4.0 | 0.00 | 0.00 | 0.00 | 6 | 1005.1 |
| 20260902021525 | 68 | 14 | 2.0 | 3.0 | 0.00 | 0.00 | 0.00 | 1 | 1005.0 |
| 20260902020023 | 68 | 14 | 1.0 | 4.0 | 0.00 | 0.00 | 0.00 | 1 | 1005.0 |
| 20260902014527 | 68 | 310 | 1.0 | 3.0 | 0.00 | 0.00 | 0.00 | 2 | 1005.0 |
| 20260902013019 | 68 | 110 | 0.0 | 1.0 | 0.00 | 0.00 | 0.00 | 9 | 1004.8 |
| 20260902011519 | 68 | 110 | 0.0 | 1.0 | 0.00 | 0.00 | 0.00 | 15 | 1004.8 |
| 20260902010016 | 69 | 114 | 1.0 | 2.0 | 0.00 | 0.00 | 0.00 | 21 | 1004.7 |
| 20260902004520 | 69 | 114 | 1.0 | 2.0 | 0.00 | 0.00 | 0.00 | 31 | 1004.8 |
| 20260902003026 | 70 | 5 | 0.0 | 1.0 | 0.00 | 0.00 | 0.00 | 24 | 1005.0 |
| 20260902001508 | 70 | 5 | 0.0 | 2.0 | 0.00 | 0.00 | 0.00 | 55 | 1005.2 |
| 20260902000008 | 71 | 318 | 0.0 | 1.0 | 0.00 | 0.00 | 0.00 | 49 | 1005.5 |
| 20260901234506 | 71 | 318 | 0.0 | 1.0 | 0.00 | 0.00 | 0.00 | 45 | 1005.9 |
| 20260901233007 | 72 | 318 | 0.0 | 3.0 | 0.00 | 0.00 | 0.00 | 50 | 1005.7 |
| 20260901231506 | 73 | 140 | 2.0 | 4.0 | 0.00 | 0.00 | 0.00 | 45 | 1005.8 |
| 20260901230007 | 73 | 141 | 0.0 | 0.0 | 0.00 | 0.00 | 0.00 | 65 | 1005.7 |
| 20260901224508 | 73 | 141 | 0.0 | 0.0 | 0.00 | 0.00 | 0.00 | 67 | 1005.8 |
| 20260901223005 | 74 | 142 | 0.0 | 0.0 | 0.00 | 0.00 | 0.00 | 71 | 1005.6 |
| 20260901221503 | 75 | 142 | 0.0 | 0.0 | 0.00 | 0.00 | 0.00 | 70 | 1005.9 |
| 20260901220007 | 75 | 102 | 1.0 | 2.0 | 0.00 | 0.00 | 0.00 | 67 | 1005.7 |
| 20260901214501 | 75 | 97 | 0.0 | 3.0 | 0.00 | 0.00 | 0.00 | 66 | 1005.6 |
| 20260901213000 | 76 | 117 | 2.0 | 4.0 | 0.00 | 0.00 | 0.00 | 64 | 1006.0 |
| 20260901211601 | 76 | 117 | 1.0 | 4.0 | 0.00 | 0.00 | 0.00 | 62 | 1006.3 |
| 20260901210129 | 76 | 137 | 4.0 | 8.0 | 0.00 | 0.00 | 0.00 | 59 | 1006.5 |
| 20260901204558 | 76 | 140 | 0.0 | 1.0 | 0.00 | 0.00 | 0.00 | 62 | 1006.6 |
| 20260901203056 | 75 | 114 | 1.0 | 3.0 | 0.00 | 0.00 | 0.00 | 64 | 1006.3 |
| 20260901201555 | 75 | 109 | 0.0 | 2.0 | 0.00 | 0.00 | 0.00 | 61 | 1006.1 |
| 20260901200056 | 75 | 83 | 0.0 | 0.0 | 0.00 | 0.00 | 0.00 | 64 | 1005.9 |
| 20260901194602 | 75 | 35 | 0.0 | 1.0 | 0.00 | 0.00 | 0.00 | 64 | 1006.1 |
| 20260901193058 | 74 | 70 | 0.0 | 0.0 | 0.00 | 0.00 | 0.00 | 64 | 1006.2 |
| 20260901191601 | 74 | 66 | 0.0 | 1.0 | 0.00 | 0.00 | 0.00 | 61 | 1006.2 |
| 20260901190116 | 74 | 60 | 0.0 | 1.0 | 0.00 | 0.00 | 0.00 | 63 | 1006.3 |
| 20260901184551 | 75 | 63 | 0.0 | 1.0 | 0.00 | 0.01 | 0.00 | 61 | 1006.4 |
| 20260901183051 | 75 | 53 | 0.0 | 1.0 | 0.00 | 0.01 | 0.00 | 62 | 1006.5 |
| 20260901181549 | 75 | 76 | 0.0 | 0.0 | 0.00 | 0.01 | 0.00 | 63 | 1006.5 |
| 20260901180048 | 75 | 27 | 0.0 | 1.0 | 0.00 | 0.01 | 0.00 | 61 | 1006.2 |
| 20260901174553 | 75 | 76 | 0.0 | 3.0 | 0.00 | 0.01 | 0.00 | 59 | 1006.3 |
| 20260901173046 | 75 | 35 | 0.0 | 3.0 | 0.00 | 0.01 | 0.00 | 59 | 1006.6 |
| 20260901171551 | 74 | 43 | 0.0 | 6.0 | 0.00 | 0.01 | 0.00 | 58 | 1006.8 |
| 20260901170044 | 75 | 65 | 3.0 | 7.0 | 0.00 | 0.01 | 0.00 | 56 | 1007.1 |
| 20260901164551 | 75 | 104 | 3.0 | 7.0 | 0.00 | 0.01 | 0.00 | 58 | 1007.0 |
| 20260901163102 | 74 | 101 | 4.0 | 7.0 | 0.00 | 0.01 | 0.00 | 58 | 1007.1 |
| 20260901161536 | 73 | 84 | 3.0 | 5.0 | 0.00 | 0.01 | 0.00 | 60 | 1006.9 |
| 20260901160034 | 72 | 82 | 1.0 | 4.0 | 0.00 | 0.01 | 0.00 | 62 | 1007.1 |
| 20260901154546 | 71 | 104 | 2.0 | 5.0 | 0.00 | 0.02 | 0.00 | 64 | 1007.2 |
| 20260901153037 | 70 | 87 | 2.0 | 4.0 | 0.00 | 0.02 | 0.00 | 65 | 1007.0 |
| 20260901151522 | 68 | 108 | 0.0 | 3.0 | 0.00 | 0.02 | 0.00 | 69 | 1007.2 |
| 20260901144519 | 66 | 76 | 0.0 | 0.0 | 0.00 | 0.02 | 0.00 | 71 | 1007.2 |
| 20260901143012 | 65 | 23 | 0.0 | 0.0 | 0.00 | 0.02 | 0.00 | 72 | 1007.1 |
| 20260901141514 | 65 | 20 | 0.0 | 4.0 | 0.00 | 0.02 | 0.00 | 71 | 1007.5 |
| 20260901140013 | 64 | 142 | 0.0 | 1.0 | 0.00 | 0.02 | 0.00 | 72 | 1007.7 |
| 20260901134509 | 64 | 142 | 0.0 | 1.0 | 0.00 | 0.02 | 0.00 | 69 | 1007.6 |
| 20260901133007 | 63 | 142 | 0.0 | 1.0 | 0.00 | 0.02 | 0.00 | 72 | 1007.8 |
| 20260901131505 | 60 | 142 | 0.0 | 0.0 | 0.00 | 0.02 | 0.00 | 70 | 1007.7 |
| 20260901130006 | 58 | 142 | 0.0 | 0.0 | 0.00 | 0.02 | 0.00 | 61 | 1007.7 |